Terminal Aerodrome Forecast
Issued by NWS Blacksburg, VA

Home | Current Version | Previous Version | Text Only | Print | Product List | Glossary On
Versions: 1 2 3 4 5 6 7 8 9 10 11 12 13 14 15 16 17 18 19 20 21 22 23 24 25 26 27 28 29 30 31 32 33
974
FTUS41 KRNK 241131
TAFROA
TAF
KROA 241131Z 2412/2512 31005KT P6SM SCT080 SCT110
     FM241600 27008KT P6SM BKN070
     FM250100 24003KT P6SM SCT080=

USA.gov is the U.S. government's official web portal to all federal, state and local government web resources and services.